Time;durP1;ratioP1;P1;durP2;ratioP2;P2;SDS_P1;SDS_P2;PMS_P1;PMS_P2;Temp;Humidity;BMP_temperature;BMP_pressure;BME280_temperature;BME280_humidity;BME280_pressure;Samples;Min_cycle;Max_cycle;Signal;HPM_P1;HPM_P2
2020/12/15 00:00:57;;;;;;;20.95;16.25;;;5.90;99.90;;;;;;5064596;28;20225;-87
2020/12/15 00:03:24;;;;;;;20.13;15.00;;;5.80;99.90;;;;;;5061993;28;20277;-86
2020/12/15 00:05:53;;;;;;;21.27;16.75;;;5.80;99.90;;;;;;5061550;28;20219;-86
2020/12/15 00:08:19;;;;;;;21.05;14.65;;;5.70;99.90;;;;;;5064133;28;20628;-87
2020/12/15 00:10:46;;;;;;;20.98;16.67;;;5.60;99.90;;;;;;5064764;28;20309;-87
2020/12/15 00:13:13;;;;;;;21.75;15.85;;;5.60;99.90;;;;;;5061989;28;20258;-87
2020/12/15 00:15:39;;;;;;;21.27;15.95;;;5.70;99.90;;;;;;5060855;28;20217;-88
2020/12/15 00:18:06;;;;;;;20.95;15.65;;;5.60;99.90;;;;;;5061218;28;20199;-87
2020/12/15 00:20:33;;;;;;;19.75;14.18;;;5.60;99.90;;;;;;5060788;28;20321;-86
2020/12/15 00:23:00;;;;;;;20.90;15.70;;;5.50;99.90;;;;;;5060329;28;20180;-86
2020/12/15 00:25:26;;;;;;;22.90;15.90;;;5.50;99.90;;;;;;5060518;28;20186;-86
2020/12/15 00:27:52;;;;;;;22.33;15.55;;;5.50;99.90;;;;;;5061083;28;20282;-86
2020/12/15 00:30:19;;;;;;;21.58;15.30;;;5.50;99.90;;;;;;5084316;22;20254;-84
2020/12/15 00:32:47;;;;;;;23.25;16.27;;;5.40;99.90;;;;;;5063028;28;20281;-83
2020/12/15 00:35:13;;;;;;;22.67;15.77;;;5.50;99.90;;;;;;5064709;28;20702;-83
2020/12/15 00:37:41;;;;;;;20.30;14.57;;;5.50;99.90;;;;;;5064178;28;20185;-83
2020/12/15 00:40:07;;;;;;;18.40;15.13;;;5.50;99.90;;;;;;5061881;28;20261;-84
2020/12/15 00:42:33;;;;;;;20.25;15.48;;;5.60;99.90;;;;;;5059394;28;20199;-81
2020/12/15 00:45:00;;;;;;;22.20;15.90;;;5.50;99.90;;;;;;5058993;28;20190;-79
2020/12/15 00:47:26;;;;;;;20.35;15.40;;;5.50;99.90;;;;;;5060163;28;20626;-81
2020/12/15 00:49:52;;;;;;;22.27;17.15;;;5.40;99.90;;;;;;5059036;28;20223;-81
2020/12/15 00:52:23;;;;;;;22.23;15.90;;;5.50;99.90;;;;;;5059654;28;20205;-81
2020/12/15 00:54:50;;;;;;;17.08;13.90;;;5.60;99.90;;;;;;5058424;28;20226;-81
2020/12/15 00:57:17;;;;;;;22.75;16.55;;;5.60;99.90;;;;;;5058393;28;20187;-81
2020/12/15 00:59:44;;;;;;;22.13;17.35;;;5.50;99.90;;;;;;5057945;28;20576;-81
2020/12/15 01:02:10;;;;;;;19.42;15.52;;;5.40;99.90;;;;;;5057886;28;20270;-81
2020/12/15 01:04:37;;;;;;;19.27;15.20;;;5.40;99.90;;;;;;5058182;28;20254;-81
2020/12/15 01:07:03;;;;;;;19.48;15.05;;;5.40;99.90;;;;;;5057510;28;20201;-81
2020/12/15 01:09:29;;;;;;;17.92;13.43;;;5.40;99.90;;;;;;5057016;28;20285;-83
2020/12/15 01:11:57;;;;;;;19.23;15.48;;;5.50;99.90;;;;;;5056727;28;20237;-82
2020/12/15 01:14:23;;;;;;;20.95;15.70;;;5.60;99.90;;;;;;5056291;28;20243;-82
2020/12/15 01:16:50;;;;;;;18.83;14.45;;;5.60;99.90;;;;;;5056300;28;20211;-82
2020/12/15 01:19:16;;;;;;;20.05;15.30;;;5.60;99.90;;;;;;5057946;28;20223;-81
2020/12/15 01:21:42;;;;;;;18.73;14.50;;;5.60;99.90;;;;;;5056010;28;20267;-81
2020/12/15 01:24:09;;;;;;;16.35;14.10;;;5.60;99.90;;;;;;5056342;28;20184;-80
2020/12/15 01:26:35;;;;;;;23.50;16.35;;;5.50;99.90;;;;;;5056237;28;20246;-81
2020/12/15 01:29:02;;;;;;;18.90;14.55;;;5.50;99.90;;;;;;5055909;28;20215;-81
2020/12/15 01:31:29;;;;;;;18.65;14.43;;;5.40;99.90;;;;;;5055353;28;20237;-81
2020/12/15 01:33:55;;;;;;;17.80;13.77;;;5.40;99.90;;;;;;5055674;28;20210;-80
2020/12/15 01:36:30;;;;;;;22.17;15.60;;;5.50;99.90;;;;;;5055841;28;20207;-80
2020/12/15 01:38:56;;;;;;;19.95;14.40;;;5.50;99.90;;;;;;5055937;28;20229;-80
2020/12/15 01:41:23;;;;;;;21.88;13.88;;;5.50;99.90;;;;;;5054182;28;20282;-81
2020/12/15 01:43:54;;;;;;;18.98;15.30;;;5.50;99.90;;;;;;5055309;28;20613;-81
2020/12/15 01:46:22;;;;;;;19.15;14.75;;;5.40;99.90;;;;;;5056635;28;20298;-81
2020/12/15 01:48:48;;;;;;;20.42;14.45;;;5.50;99.90;;;;;;5056094;28;20663;-81
2020/12/15 01:51:15;;;;;;;15.95;13.90;;;5.50;99.90;;;;;;5055944;28;20662;-81
2020/12/15 01:53:43;;;;;;;19.42;13.98;;;5.60;99.90;;;;;;5056045;28;20207;-81
2020/12/15 01:56:10;;;;;;;16.67;14.18;;;5.50;99.90;;;;;;5055960;28;20233;-81
2020/12/15 01:58:37;;;;;;;21.60;14.82;;;5.40;99.90;;;;;;5054717;28;20679;-81
2020/12/15 02:01:03;;;;;;;17.30;13.65;;;5.40;99.90;;;;;;5054846;28;20222;-81
2020/12/15 02:03:30;;;;;;;18.98;14.63;;;5.40;99.90;;;;;;5055920;28;20199;-81
2020/12/15 02:05:57;;;;;;;19.30;14.10;;;5.30;99.90;;;;;;5056144;28;20575;-80
2020/12/15 02:08:24;;;;;;;19.40;15.18;;;5.30;99.90;;;;;;5056313;28;20203;-81
2020/12/15 02:10:50;;;;;;;22.17;15.48;;;5.20;99.90;;;;;;5059437;28;20229;-80
2020/12/15 02:13:17;;;;;;;20.85;15.40;;;5.20;99.90;;;;;;5059782;28;20289;-80
2020/12/15 02:15:43;;;;;;;18.45;15.43;;;5.30;99.90;;;;;;5059871;28;20312;-80
2020/12/15 02:18:09;;;;;;;24.83;17.05;;;5.40;99.90;;;;;;5060046;28;20203;-80
2020/12/15 02:20:38;;;;;;;20.17;15.10;;;5.40;99.90;;;;;;5059475;28;20249;-80
2020/12/15 02:23:06;;;;;;;20.92;15.43;;;5.40;99.90;;;;;;5059996;28;20213;-80
2020/12/15 02:25:32;;;;;;;21.13;15.15;;;5.50;99.90;;;;;;5062328;28;20271;-81
2020/12/15 02:27:58;;;;;;;20.67;15.32;;;5.40;99.90;;;;;;5062034;28;20213;-82
2020/12/15 02:30:24;;;;;;;18.00;14.52;;;5.30;99.90;;;;;;5061035;28;20242;-81
2020/12/15 02:32:51;;;;;;;26.98;16.98;;;5.30;99.90;;;;;;5062639;28;20211;-80
2020/12/15 02:35:17;;;;;;;19.25;15.25;;;5.40;99.90;;;;;;5060138;28;20226;-81
2020/12/15 02:37:44;;;;;;;22.13;15.68;;;5.40;99.90;;;;;;5059697;28;20679;-81
2020/12/15 02:40:11;;;;;;;20.85;15.85;;;5.30;99.90;;;;;;5058951;28;20230;-81
2020/12/15 02:42:37;;;;;;;19.65;15.80;;;5.30;99.90;;;;;;5059089;28;20203;-82
2020/12/15 02:45:04;;;;;;;18.13;15.13;;;5.20;99.90;;;;;;5062062;28;20205;-81
2020/12/15 02:47:30;;;;;;;18.83;15.48;;;5.20;99.90;;;;;;5058548;28;20211;-82
2020/12/15 02:49:57;;;;;;;21.48;15.68;;;5.20;99.90;;;;;;5058354;28;20254;-81
2020/12/15 02:52:23;;;;;;;20.38;15.73;;;5.30;99.90;;;;;;5058981;28;20195;-81
2020/12/15 02:54:50;;;;;;;17.80;14.43;;;5.30;99.90;;;;;;5058165;28;20199;-81
2020/12/15 02:57:17;;;;;;;16.63;14.70;;;5.20;99.90;;;;;;5057849;28;20203;-81
2020/12/15 02:59:45;;;;;;;19.13;14.80;;;5.30;99.90;;;;;;5058195;28;20222;-81
2020/12/15 03:02:11;;;;;;;20.38;16.10;;;5.30;99.90;;;;;;5060005;28;20207;-81
2020/12/15 03:04:37;;;;;;;21.23;15.25;;;5.30;99.90;;;;;;5059587;28;20207;-81
2020/12/15 03:07:04;;;;;;;18.13;14.98;;;5.40;99.90;;;;;;5059478;28;20195;-81
2020/12/15 03:09:30;;;;;;;19.02;14.38;;;5.30;99.90;;;;;;5059128;28;20234;-81
2020/12/15 03:11:57;;;;;;;20.95;16.40;;;5.40;99.90;;;;;;5058157;28;20213;-81
2020/12/15 03:14:24;;;;;;;20.48;15.52;;;5.30;99.90;;;;;;5058124;28;20209;-81
2020/12/15 03:16:51;;;;;;;21.17;15.63;;;5.30;99.90;;;;;;5057934;28;20227;-81
2020/12/15 03:19:17;;;;;;;22.10;16.67;;;5.30;99.90;;;;;;5058133;28;20203;-81
2020/12/15 03:21:43;;;;;;;20.60;14.70;;;5.30;99.90;;;;;;5057439;28;20209;-81
2020/12/15 03:24:10;;;;;;;20.58;15.65;;;5.40;99.90;;;;;;5058848;28;20209;-80
2020/12/15 03:26:36;;;;;;;18.98;14.07;;;5.50;99.90;;;;;;5057829;28;20301;-80
2020/12/15 03:29:02;;;;;;;25.25;16.35;;;5.50;99.90;;;;;;5058241;28;20205;-80
2020/12/15 03:31:29;;;;;;;19.55;16.42;;;5.50;99.90;;;;;;5057422;28;20234;-80
2020/12/15 03:33:56;;;;;;;22.65;17.30;;;5.40;99.90;;;;;;5058518;28;20203;-80
2020/12/15 03:36:22;;;;;;;24.00;16.05;;;5.40;99.90;;;;;;5058162;28;20223;-80
2020/12/15 03:38:48;;;;;;;21.40;16.67;;;5.40;99.90;;;;;;5058359;28;20564;-80
2020/12/15 03:41:15;;;;;;;19.65;15.23;;;5.30;99.90;;;;;;5058109;28;20227;-80
2020/12/15 03:43:41;;;;;;;22.23;16.67;;;5.20;99.90;;;;;;5057785;28;20213;-80
2020/12/15 03:46:07;;;;;;;26.27;17.27;;;5.20;99.90;;;;;;5057569;28;20199;-80
2020/12/15 03:48:34;;;;;;;24.83;17.15;;;5.20;99.90;;;;;;5057881;28;20650;-80
2020/12/15 03:51:01;;;;;;;20.83;16.35;;;5.20;99.90;;;;;;5057282;28;20226;-80
2020/12/15 03:53:27;;;;;;;23.95;16.90;;;5.30;99.90;;;;;;5056987;28;20680;-80
2020/12/15 03:55:53;;;;;;;26.17;17.40;;;5.20;99.90;;;;;;5057622;28;20290;-80
2020/12/15 03:58:20;;;;;;;22.70;17.05;;;5.30;99.90;;;;;;5056695;28;20205;-80
2020/12/15 04:00:46;;;;;;;21.02;16.02;;;5.30;99.90;;;;;;5057491;28;20226;-80
2020/12/15 04:03:12;;;;;;;20.65;16.27;;;5.20;99.90;;;;;;5057402;28;20575;-80
2020/12/15 04:05:39;;;;;;;25.60;16.85;;;5.10;99.90;;;;;;5057544;28;20199;-81
2020/12/15 04:08:06;;;;;;;22.10;17.77;;;5.00;99.90;;;;;;5056972;28;20793;-81
2020/12/15 04:10:32;;;;;;;27.15;18.45;;;5.00;99.90;;;;;;5057066;28;20318;-81
2020/12/15 04:12:58;;;;;;;23.95;17.67;;;5.00;99.90;;;;;;5057033;28;20209;-80
2020/12/15 04:15:25;;;;;;;22.65;17.08;;;5.10;99.90;;;;;;5056474;28;20225;-80
2020/12/15 04:17:51;;;;;;;21.75;15.32;;;5.10;99.90;;;;;;5057417;28;20207;-80
2020/12/15 04:20:18;;;;;;;25.95;18.60;;;5.00;99.90;;;;;;5057170;28;20249;-80
2020/12/15 04:22:45;;;;;;;30.15;16.75;;;5.00;99.90;;;;;;5057780;28;20583;-80
2020/12/15 04:25:11;;;;;;;20.38;16.75;;;4.90;99.90;;;;;;5058796;28;20209;-81
2020/12/15 04:27:38;;;;;;;26.58;18.98;;;4.80;99.90;;;;;;5057743;28;20670;-80
2020/12/15 04:30:05;;;;;;;27.30;19.55;;;4.90;99.90;;;;;;5057151;28;20242;-80
2020/12/15 04:32:32;;;;;;;24.20;17.08;;;4.90;99.90;;;;;;5056962;28;20213;-80
2020/12/15 04:34:58;;;;;;;24.55;18.70;;;4.90;99.90;;;;;;5055223;28;20444;-81
2020/12/15 04:37:25;;;;;;;23.83;17.27;;;4.90;99.90;;;;;;5057533;28;20207;-80
2020/12/15 04:39:52;;;;;;;23.63;18.40;;;5.00;99.90;;;;;;5057375;28;20261;-83
2020/12/15 04:42:18;;;;;;;25.15;18.02;;;5.00;99.90;;;;;;5061894;28;20199;-79
2020/12/15 04:44:46;;;;;;;24.05;17.80;;;5.00;99.90;;;;;;5059440;28;20209;-82
2020/12/15 04:47:17;;;;;;;25.65;18.27;;;4.90;99.90;;;;;;5059003;28;20207;-81
2020/12/15 04:49:59;;;;;;;22.90;17.13;;;4.90;99.90;;;;;;5058580;28;20219;-82
2020/12/15 04:52:43;;;;;;;27.50;18.08;;;4.80;99.90;;;;;;5066230;28;20191;-80
2020/12/15 04:55:11;;;;;;;24.02;17.20;;;4.80;99.90;;;;;;5066878;28;20183;-81
2020/12/15 04:57:39;;;;;;;27.30;19.05;;;4.80;99.90;;;;;;5067322;28;20298;-79
2020/12/15 05:00:06;;;;;;;23.38;17.75;;;4.80;99.90;;;;;;5067583;28;20250;-80
2020/12/15 05:02:33;;;;;;;21.60;16.40;;;4.90;99.90;;;;;;5067366;28;20281;-80
2020/12/15 05:04:59;;;;;;;27.50;17.52;;;4.90;99.90;;;;;;5067638;28;20211;-79
2020/12/15 05:07:26;;;;;;;24.83;16.95;;;4.80;99.90;;;;;;5067390;28;20198;-80
2020/12/15 05:09:52;;;;;;;26.38;18.20;;;4.70;99.90;;;;;;5066782;28;20226;-79
2020/12/15 05:12:19;;;;;;;27.52;19.27;;;4.70;99.90;;;;;;5058211;28;20229;-80
2020/12/15 05:14:52;;;;;;;22.42;16.48;;;4.70;99.90;;;;;;5057716;28;20203;-81
2020/12/15 05:17:25;;;;;;;25.42;17.75;;;4.70;99.90;;;;;;5056091;28;20223;-81
2020/12/15 05:19:51;;;;;;;26.98;17.52;;;4.70;99.90;;;;;;5055306;28;20753;-80
2020/12/15 05:22:17;;;;;;;24.13;17.40;;;4.70;99.90;;;;;;5056272;28;20210;-81
2020/12/15 05:24:48;;;;;;;25.17;17.70;;;4.60;99.90;;;;;;5056635;28;20210;-82
2020/12/15 05:27:29;;;;;;;31.95;22.95;;;4.60;99.90;;;;;;5059684;28;20183;-80
2020/12/15 05:30:08;;;;;;;26.30;19.38;;;4.60;99.90;;;;;;5057478;28;20260;-82
2020/12/15 05:32:47;;;;;;;28.50;19.92;;;4.60;99.90;;;;;;5058123;28;20186;-81
2020/12/15 05:35:14;;;;;;;25.85;19.27;;;4.60;99.90;;;;;;5057338;28;20274;-82
2020/12/15 05:37:43;;;;;;;29.73;19.98;;;4.70;99.90;;;;;;5057512;28;20199;-81
2020/12/15 05:40:10;;;;;;;27.98;19.60;;;4.60;99.90;;;;;;5057089;28;20226;-81
2020/12/15 05:42:38;;;;;;;28.38;19.73;;;4.50;99.90;;;;;;5057151;28;20598;-81
2020/12/15 05:45:06;;;;;;;30.25;19.85;;;4.50;99.90;;;;;;5057094;28;20207;-82
2020/12/15 05:47:33;;;;;;;28.58;19.33;;;4.50;99.90;;;;;;5056806;28;20566;-81
2020/12/15 05:50:03;;;;;;;28.92;19.05;;;4.50;99.90;;;;;;5056863;28;20223;-81
2020/12/15 05:52:32;;;;;;;25.83;19.52;;;4.50;99.90;;;;;;5056456;28;20266;-81
2020/12/15 05:55:06;;;;;;;29.27;19.17;;;4.60;99.90;;;;;;5056710;28;20203;-81
2020/12/15 05:57:32;;;;;;;26.92;19.73;;;4.60;99.90;;;;;;5056721;28;20611;-81
2020/12/15 06:00:10;;;;;;;28.52;20.33;;;4.60;99.90;;;;;;5056456;28;20444;-81
2020/12/15 06:02:37;;;;;;;31.30;21.10;;;4.80;99.90;;;;;;5055957;28;20435;-81
2020/12/15 06:05:04;;;;;;;27.40;21.13;;;4.80;99.90;;;;;;5057078;28;20184;-81
2020/12/15 06:07:33;;;;;;;25.35;17.02;;;4.80;99.90;;;;;;5057175;28;20215;-81
2020/12/15 06:09:59;;;;;;;25.48;18.75;;;4.70;99.90;;;;;;5058214;28;20722;-81
2020/12/15 06:12:26;;;;;;;24.75;16.52;;;4.80;99.90;;;;;;5059243;28;20601;-80
2020/12/15 06:14:54;;;;;;;26.58;19.65;;;4.90;99.90;;;;;;5067829;28;20290;-83
2020/12/15 06:17:22;;;;;;;24.00;17.85;;;5.00;99.90;;;;;;5070657;28;20226;-81
2020/12/15 06:19:52;;;;;;;24.38;18.90;;;5.00;99.90;;;;;;5063419;28;20223;-81
2020/12/15 06:22:21;;;;;;;26.13;20.48;;;5.00;99.90;;;;;;5058428;28;20435;-82
2020/12/15 06:24:56;;;;;;;28.00;19.35;;;4.90;99.90;;;;;;5063590;28;20310;-81
2020/12/15 06:27:30;;;;;;;26.95;20.67;;;4.90;99.90;;;;;;5063073;28;20191;-80
2020/12/15 06:29:57;;;;;;;26.90;19.42;;;4.90;99.90;;;;;;5084179;22;20234;-82
2020/12/15 06:32:24;;;;;;;25.88;19.05;;;5.00;99.90;;;;;;5055192;28;20325;-82
2020/12/15 06:34:52;;;;;;;26.60;19.88;;;5.00;99.90;;;;;;5056352;28;20230;-82
2020/12/15 06:37:20;;;;;;;28.27;19.48;;;5.00;99.90;;;;;;5056535;28;20306;-82
2020/12/15 06:39:54;;;;;;;24.60;19.60;;;5.00;99.90;;;;;;5056559;28;20199;-82
2020/12/15 06:42:21;;;;;;;23.45;17.38;;;5.10;99.90;;;;;;5059187;28;20313;-82
2020/12/15 06:44:59;;;;;;;28.08;18.80;;;5.00;99.90;;;;;;5060918;28;20210;-82
2020/12/15 06:47:27;;;;;;;26.75;18.05;;;5.00;99.90;;;;;;5060490;28;20264;-82
2020/12/15 06:49:53;;;;;;;25.33;18.77;;;5.00;99.90;;;;;;5057473;28;20234;-83
2020/12/15 06:52:27;;;;;;;27.33;18.50;;;5.00;99.90;;;;;;5056130;28;20207;-82
2020/12/15 06:54:57;;;;;;;26.23;18.98;;;5.00;99.90;;;;;;5056643;28;20182;-84
2020/12/15 06:57:32;;;;;;;25.70;19.13;;;5.00;99.90;;;;;;5057967;28;20229;-82
2020/12/15 07:00:00;;;;;;;26.13;18.95;;;5.00;99.90;;;;;;5059920;28;20218;-82
2020/12/15 07:02:32;;;;;;;27.83;18.90;;;5.00;99.90;;;;;;5059733;28;20202;-83
2020/12/15 07:05:16;;;;;;;28.02;18.65;;;5.00;99.90;;;;;;5059814;28;20271;-82
2020/12/15 07:07:48;;;;;;;24.40;18.75;;;5.00;99.90;;;;;;5059701;28;20231;-82
2020/12/15 07:10:15;;;;;;;30.23;21.58;;;5.10;99.90;;;;;;5059999;28;20219;-82
2020/12/15 07:12:42;;;;;;;29.27;19.75;;;5.10;99.90;;;;;;5059998;28;20195;-83
2020/12/15 07:15:11;;;;;;;28.02;19.90;;;5.10;99.90;;;;;;5059699;28;20203;-83
2020/12/15 07:17:42;;;;;;;27.40;18.70;;;5.10;99.90;;;;;;5059962;28;20314;-83
2020/12/15 07:20:08;;;;;;;33.72;20.80;;;5.10;99.90;;;;;;5059594;28;20599;-83
2020/12/15 07:22:34;;;;;;;26.70;18.60;;;5.10;99.90;;;;;;5059785;28;20211;-83
2020/12/15 07:25:01;;;;;;;28.60;20.45;;;5.20;99.90;;;;;;5059538;28;20214;-83
2020/12/15 07:27:29;;;;;;;31.05;22.60;;;5.10;99.90;;;;;;5059408;28;20679;-83
2020/12/15 07:29:56;;;;;;;29.67;21.30;;;5.00;99.90;;;;;;5059863;28;20231;-83
2020/12/15 07:32:22;;;;;;;27.50;19.33;;;4.90;99.90;;;;;;5062437;28;20709;-83
2020/12/15 07:34:49;;;;;;;25.50;18.85;;;5.00;99.90;;;;;;5065468;28;20221;-83
2020/12/15 07:37:19;;;;;;;34.45;19.88;;;5.10;99.90;;;;;;5061322;28;20295;-83
2020/12/15 07:39:47;;;;;;;33.80;20.30;;;5.10;99.90;;;;;;5060588;28;20671;-83
2020/12/15 07:42:13;;;;;;;27.35;19.25;;;5.00;99.90;;;;;;5060155;28;20290;-83
2020/12/15 07:44:39;;;;;;;25.35;18.27;;;5.10;99.90;;;;;;5058563;28;20202;-83
2020/12/15 07:47:06;;;;;;;28.02;19.17;;;5.10;99.90;;;;;;5059489;28;20205;-83
2020/12/15 07:49:32;;;;;;;31.10;19.63;;;5.10;99.90;;;;;;5059568;28;20282;-83
2020/12/15 07:52:00;;;;;;;26.75;18.70;;;5.10;99.90;;;;;;5063215;28;20270;-83
2020/12/15 07:54:26;;;;;;;26.60;18.45;;;5.10;99.90;;;;;;5072295;28;20210;-83
2020/12/15 07:56:53;;;;;;;28.77;19.40;;;5.20;99.90;;;;;;5071422;28;20219;-83
2020/12/15 07:59:20;;;;;;;28.35;19.55;;;5.20;99.90;;;;;;5060792;28;20198;-83
2020/12/15 08:01:46;;;;;;;29.83;20.25;;;5.10;99.90;;;;;;5059483;28;20233;-83
2020/12/15 08:04:14;;;;;;;27.08;19.60;;;5.10;99.90;;;;;;5059531;28;20193;-83
2020/12/15 08:06:42;;;;;;;29.63;20.90;;;5.30;99.90;;;;;;5058972;28;20297;-83
2020/12/15 08:09:11;;;;;;;35.15;20.42;;;5.30;99.90;;;;;;5058768;28;20198;-83
2020/12/15 08:11:43;;;;;;;25.58;18.35;;;5.30;99.90;;;;;;5056306;28;20765;-83
2020/12/15 08:14:12;;;;;;;24.50;18.45;;;5.30;99.90;;;;;;5058825;28;20245;-81
2020/12/15 08:16:39;;;;;;;27.08;19.60;;;5.30;99.90;;;;;;5059308;28;20218;-81
2020/12/15 08:19:05;;;;;;;26.63;19.30;;;5.20;99.90;;;;;;5059523;28;20197;-82
2020/12/15 08:21:41;;;;;;;22.92;17.70;;;5.40;99.90;;;;;;5061854;28;20233;-81
2020/12/15 08:24:11;;;;;;;27.38;18.67;;;5.40;99.90;;;;;;5059542;28;20199;-81
2020/12/15 08:26:38;;;;;;;25.58;19.02;;;5.40;99.90;;;;;;5058678;28;20651;-81
2020/12/15 08:29:07;;;;;;;27.75;19.20;;;5.50;99.90;;;;;;5059354;28;20242;-81
2020/12/15 08:31:35;;;;;;;27.25;18.27;;;5.50;99.90;;;;;;5058400;28;20262;-81
2020/12/15 08:34:01;;;;;;;28.20;19.15;;;5.50;99.90;;;;;;5059394;28;20281;-82
2020/12/15 08:36:28;;;;;;;24.35;18.70;;;5.50;99.90;;;;;;5059153;28;20610;-83
2020/12/15 08:38:55;;;;;;;34.33;22.02;;;5.60;99.90;;;;;;5061160;28;20194;-82
2020/12/15 08:41:23;;;;;;;26.33;19.10;;;5.60;99.90;;;;;;5059856;28;20589;-82
2020/12/15 08:43:49;;;;;;;27.33;20.05;;;5.60;99.90;;;;;;5059411;28;20651;-83
2020/12/15 08:46:18;;;;;;;30.60;19.70;;;5.60;99.90;;;;;;5059894;28;20184;-82
2020/12/15 08:48:45;;;;;;;28.65;19.17;;;5.60;99.90;;;;;;5058372;28;20618;-82
2020/12/15 08:51:12;;;;;;;28.35;20.30;;;5.60;99.90;;;;;;5058161;28;20219;-82
2020/12/15 08:53:39;;;;;;;29.67;19.15;;;5.60;99.90;;;;;;5059635;28;20207;-81
2020/12/15 08:56:14;;;;;;;26.98;18.88;;;5.70;99.90;;;;;;5060381;28;20237;-82
2020/12/15 08:58:42;;;;;;;29.00;19.35;;;5.60;99.90;;;;;;5059842;28;20190;-82
2020/12/15 09:01:09;;;;;;;29.50;20.05;;;5.60;99.90;;;;;;5059302;28;20223;-82
2020/12/15 09:03:44;;;;;;;30.45;20.90;;;5.70;99.90;;;;;;5059244;28;20189;-82
2020/12/15 09:06:11;;;;;;;28.13;19.83;;;5.60;99.90;;;;;;5058461;28;20644;-82
2020/12/15 09:08:47;;;;;;;28.17;19.92;;;5.70;99.90;;;;;;5059453;28;20202;-82
2020/12/15 09:11:15;;;;;;;31.95;21.35;;;5.70;99.90;;;;;;5060668;28;20290;-83
2020/12/15 09:13:55;;;;;;;31.75;19.95;;;5.80;99.90;;;;;;5061080;28;20585;-85
2020/12/15 09:16:32;;;;;;;30.00;19.70;;;5.90;99.90;;;;;;5059808;28;20206;-83
2020/12/15 09:19:09;;;;;;;29.60;20.70;;;6.00;99.90;;;;;;5060573;28;20209;-82
2020/12/15 09:21:35;;;;;;;30.33;19.15;;;5.90;99.90;;;;;;5059176;28;20249;-82
2020/12/15 09:24:01;;;;;;;29.63;20.27;;;6.00;99.90;;;;;;5058592;28;20256;-83
2020/12/15 09:26:27;;;;;;;30.73;21.40;;;6.00;99.90;;;;;;5058390;28;20233;-81
2020/12/15 09:28:55;;;;;;;31.42;20.48;;;6.00;99.90;;;;;;5059860;28;20697;-82
2020/12/15 09:31:21;;;;;;;25.42;17.38;;;6.10;99.90;;;;;;5058364;28;20241;-83
2020/12/15 09:33:47;;;;;;;30.50;20.15;;;6.10;99.90;;;;;;5057796;28;20190;-82
2020/12/15 09:36:14;;;;;;;30.42;20.00;;;6.10;99.90;;;;;;5057331;28;20250;-83
2020/12/15 09:38:41;;;;;;;26.05;18.80;;;6.20;99.90;;;;;;5058657;28;20205;-82
2020/12/15 09:41:07;;;;;;;24.50;17.98;;;5.90;99.90;;;;;;5057166;28;20230;-82
2020/12/15 09:43:34;;;;;;;28.70;20.27;;;6.00;99.90;;;;;;5058089;28;20209;-82
2020/12/15 09:46:03;;;;;;;27.00;20.05;;;6.10;99.90;;;;;;5058595;28;20644;-83
2020/12/15 09:48:29;;;;;;;22.75;18.08;;;6.10;99.90;;;;;;5064126;28;20198;-83
2020/12/15 09:50:58;;;;;;;26.40;18.75;;;6.10;99.90;;;;;;5062676;28;20245;-81
2020/12/15 09:53:24;;;;;;;27.13;20.55;;;6.10;99.90;;;;;;5062544;28;20207;-81
2020/12/15 09:55:51;;;;;;;29.05;21.40;;;6.10;99.90;;;;;;5064088;28;20223;-81
2020/12/15 09:58:17;;;;;;;28.83;21.10;;;6.20;99.90;;;;;;5064486;28;20209;-82
2020/12/15 10:00:43;;;;;;;30.20;20.95;;;6.30;99.90;;;;;;5064770;28;20249;-83
2020/12/15 10:03:11;;;;;;;26.25;21.35;;;6.10;99.90;;;;;;5063890;28;20300;-81
2020/12/15 10:05:37;;;;;;;24.70;18.80;;;6.10;99.90;;;;;;5061877;28;20301;-82
2020/12/15 10:08:03;;;;;;;26.48;19.52;;;6.20;99.90;;;;;;5063103;28;20214;-82
2020/12/15 10:10:29;;;;;;;29.48;21.60;;;6.30;99.90;;;;;;5061924;28;20707;-82
2020/12/15 10:12:56;;;;;;;26.85;20.27;;;6.40;99.90;;;;;;5059491;28;20214;-81
2020/12/15 10:15:24;;;;;;;26.90;19.45;;;6.30;99.90;;;;;;5059500;28;20246;-82
2020/12/15 10:17:50;;;;;;;28.15;20.10;;;6.30;99.90;;;;;;5059574;28;20254;-83
2020/12/15 10:20:17;;;;;;;28.23;19.25;;;6.30;99.90;;;;;;5061082;28;20309;-83
2020/12/15 10:22:44;;;;;;;24.67;19.27;;;6.40;99.90;;;;;;5060051;28;20278;-82
2020/12/15 10:25:10;;;;;;;29.80;19.58;;;6.40;99.90;;;;;;5060294;28;20210;-82
2020/12/15 10:27:37;;;;;;;27.77;19.77;;;6.50;99.90;;;;;;5060530;28;20234;-83
2020/12/15 10:30:04;;;;;;;27.05;18.70;;;6.50;99.90;;;;;;5059429;28;20230;-83
2020/12/15 10:32:30;;;;;;;25.60;18.65;;;6.40;99.90;;;;;;5063844;28;20215;-82
2020/12/15 10:34:57;;;;;;;26.10;19.08;;;6.50;99.90;;;;;;5063783;28;20251;-81
2020/12/15 10:37:25;;;;;;;24.63;17.70;;;6.50;99.90;;;;;;5062671;28;20699;-82
2020/12/15 10:39:52;;;;;;;26.15;18.27;;;6.50;99.90;;;;;;5063083;28;20235;-82
2020/12/15 10:42:19;;;;;;;27.20;18.50;;;6.40;99.90;;;;;;5064240;28;20203;-81
2020/12/15 10:44:46;;;;;;;27.15;20.52;;;6.40;99.90;;;;;;5063954;28;20191;-82
2020/12/15 10:47:13;;;;;;;28.95;20.00;;;6.40;99.90;;;;;;5063309;28;20203;-82
2020/12/15 10:49:39;;;;;;;25.63;18.27;;;6.50;99.90;;;;;;5062406;28;20270;-81
2020/12/15 10:52:07;;;;;;;29.10;20.25;;;6.60;99.90;;;;;;5063532;28;20588;-81
2020/12/15 10:54:34;;;;;;;25.40;19.17;;;6.60;99.90;;;;;;5061784;28;20203;-82
2020/12/15 10:57:01;;;;;;;25.88;18.30;;;6.70;99.90;;;;;;5061047;28;20313;-81
2020/12/15 10:59:27;;;;;;;28.08;19.48;;;6.70;99.90;;;;;;5060638;28;20295;-81
2020/12/15 11:01:54;;;;;;;26.55;17.85;;;6.80;99.90;;;;;;5060716;28;20234;-81
2020/12/15 11:04:20;;;;;;;24.77;17.90;;;6.70;99.90;;;;;;5059939;28;20378;-81
2020/12/15 11:06:47;;;;;;;27.05;18.50;;;6.70;99.90;;;;;;5059634;28;20210;-81
2020/12/15 11:09:14;;;;;;;27.02;19.02;;;6.70;99.90;;;;;;5060456;28;20207;-81
2020/12/15 11:11:46;;;;;;;24.95;19.27;;;6.70;99.90;;;;;;5061831;28;20278;-81
2020/12/15 11:14:12;;;;;;;27.50;20.30;;;6.80;99.90;;;;;;5060983;28;20188;-80
2020/12/15 11:16:38;;;;;;;26.00;19.05;;;6.90;99.90;;;;;;5060210;28;20313;-81
2020/12/15 11:19:05;;;;;;;28.98;18.88;;;6.90;99.90;;;;;;5060270;28;20207;-82
2020/12/15 11:21:31;;;;;;;28.27;18.80;;;6.90;99.90;;;;;;5059453;28;20572;-81
2020/12/15 11:23:57;;;;;;;24.42;17.98;;;7.00;99.90;;;;;;5059105;28;20209;-81
2020/12/15 11:26:24;;;;;;;35.25;19.48;;;7.00;99.90;;;;;;5058890;28;20263;-80
2020/12/15 11:28:51;;;;;;;24.35;18.48;;;7.00;99.90;;;;;;5058322;28;20720;-81
2020/12/15 11:31:17;;;;;;;27.30;18.48;;;7.10;99.90;;;;;;5059292;28;20372;-80
2020/12/15 11:33:45;;;;;;;27.20;19.52;;;7.10;99.90;;;;;;5059798;28;20206;-81
2020/12/15 11:36:11;;;;;;;24.30;17.13;;;7.10;99.90;;;;;;5060423;28;20219;-81
2020/12/15 11:38:39;;;;;;;26.95;20.73;;;7.10;99.90;;;;;;5059820;28;20677;-81
2020/12/15 11:41:06;;;;;;;29.92;20.15;;;7.10;99.90;;;;;;5061244;28;20234;-80
2020/12/15 11:43:32;;;;;;;28.83;20.95;;;7.10;99.90;;;;;;5058894;28;20237;-80
2020/12/15 11:46:00;;;;;;;30.90;19.77;;;7.10;99.90;;;;;;5060148;28;20222;-81
2020/12/15 11:48:26;;;;;;;23.67;16.90;;;7.00;99.90;;;;;;5058890;28;20195;-81
2020/12/15 11:50:52;;;;;;;30.92;20.50;;;7.00;99.90;;;;;;5058694;28;20632;-80
2020/12/15 11:53:19;;;;;;;26.60;20.40;;;7.00;99.90;;;;;;5058615;28;20565;-81
2020/12/15 11:55:45;;;;;;;26.80;18.33;;;7.10;99.90;;;;;;5058032;28;20248;-81
2020/12/15 11:58:11;;;;;;;23.52;17.38;;;7.20;99.90;;;;;;5058429;28;20198;-81
2020/12/15 12:00:38;;;;;;;25.25;19.17;;;7.30;99.90;;;;;;5058875;28;20230;-81
2020/12/15 12:03:05;;;;;;;21.23;16.90;;;7.40;99.90;;;;;;5058754;28;20211;-80
2020/12/15 12:05:31;;;;;;;25.92;18.42;;;7.50;99.90;;;;;;5058537;28;20213;-81
2020/12/15 12:07:57;;;;;;;28.30;18.75;;;7.50;99.90;;;;;;5058116;28;20206;-81
2020/12/15 12:10:24;;;;;;;24.83;18.55;;;7.60;99.90;;;;;;5058121;28;20703;-82
2020/12/15 12:12:50;;;;;;;24.05;19.20;;;7.70;99.90;;;;;;5057769;28;20203;-81
2020/12/15 12:15:16;;;;;;;28.58;21.52;;;7.70;99.90;;;;;;5057712;28;20191;-81
2020/12/15 12:17:42;;;;;;;33.03;25.38;;;7.70;99.90;;;;;;5058140;28;20213;-81
2020/12/15 12:20:10;;;;;;;31.48;21.48;;;7.70;99.90;;;;;;5057812;28;20740;-81
2020/12/15 12:22:36;;;;;;;29.48;20.58;;;7.70;99.90;;;;;;5058654;28;20711;-81
2020/12/15 12:25:04;;;;;;;24.55;18.67;;;7.60;99.90;;;;;;5058585;28;20206;-80
2020/12/15 12:27:30;;;;;;;28.40;22.10;;;7.60;99.90;;;;;;5058477;28;20199;-80
2020/12/15 12:32:25;;;;;;;36.80;28.77;;;7.60;99.90;;;;;;4998573;28;20653;-83
2020/12/15 12:34:51;;;;;;;25.90;18.35;;;7.60;99.90;;;;;;4999473;28;20480;-81
2020/12/15 12:37:18;;;;;;;23.75;18.17;;;7.60;99.90;;;;;;4998471;28;20232;-81
2020/12/15 12:39:44;;;;;;;22.83;17.52;;;7.70;99.90;;;;;;4998400;28;20204;-81